createdAt,value
2018-09-03T00:00:30.479Z,17.70
2018-09-03T00:01:10.115Z,17.80
2018-09-03T00:01:50.226Z,17.70
2018-09-03T00:02:30.834Z,17.80
2018-09-03T00:03:10.422Z,17.70
2018-09-03T00:03:49.785Z,17.70
2018-09-03T00:04:29.141Z,17.70
2018-09-03T00:05:09.101Z,17.70
2018-09-03T00:05:48.561Z,17.80
2018-09-03T00:06:28.129Z,17.70
2018-09-03T00:07:07.888Z,17.70
2018-09-03T00:07:47.584Z,17.80
2018-09-03T00:08:27.201Z,17.70
2018-09-03T00:09:09.173Z,17.80
2018-09-03T00:09:48.797Z,17.80
2018-09-03T00:10:28.504Z,17.80
2018-09-03T00:11:08.163Z,17.80
2018-09-03T00:11:47.923Z,17.80
2018-09-03T00:12:27.303Z,17.80
2018-09-03T00:13:07.381Z,17.70
2018-09-03T00:13:47.182Z,17.80
2018-09-03T00:14:26.537Z,17.80
2018-09-03T00:15:06.880Z,17.80
2018-09-03T00:15:46.723Z,17.70
2018-09-03T00:16:26.341Z,17.70
2018-09-03T00:17:06.608Z,17.70
2018-09-03T00:17:45.929Z,17.70
2018-09-03T00:18:25.714Z,17.70
2018-09-03T00:19:05.442Z,17.70
2018-09-03T00:19:44.937Z,17.70
2018-09-03T00:20:24.981Z,17.70
2018-09-03T00:21:05.000Z,17.80
2018-09-03T00:21:44.612Z,17.70
2018-09-03T00:22:24.549Z,17.80
2018-09-03T00:23:04.192Z,17.70
2018-09-03T00:23:43.804Z,17.70
2018-09-03T00:24:23.411Z,17.80
2018-09-03T00:25:03.313Z,17.70
2018-09-03T00:25:42.834Z,17.70
2018-09-03T00:26:22.479Z,17.80
2018-09-03T00:27:02.151Z,17.70
2018-09-03T00:27:41.672Z,17.80
2018-09-03T00:28:21.287Z,17.80
2018-09-03T00:29:00.659Z,17.80
2018-09-03T00:29:40.053Z,17.70
2018-09-03T00:30:19.610Z,17.80
2018-09-03T00:31:04.434Z,17.80
2018-09-03T00:31:49.591Z,17.70
2018-09-03T00:32:34.615Z,17.70
2018-09-03T00:33:19.861Z,17.70
2018-09-03T00:34:04.937Z,17.70
2018-09-03T00:34:49.763Z,17.70
2018-09-03T00:35:34.524Z,17.70
2018-09-03T00:36:19.660Z,17.70
2018-09-03T00:37:04.489Z,17.70
2018-09-03T00:37:49.504Z,17.70
2018-09-03T00:38:34.731Z,17.70
2018-09-03T00:39:19.911Z,17.70
2018-09-03T00:40:04.861Z,17.80
2018-09-03T00:40:50.149Z,17.70
2018-09-03T00:41:35.680Z,17.70
2018-09-03T00:42:20.695Z,17.70
2018-09-03T00:43:05.993Z,17.70
2018-09-03T00:43:50.859Z,17.70
2018-09-03T00:44:36.151Z,17.70
2018-09-03T00:45:21.135Z,17.60
2018-09-03T00:46:06.451Z,17.60
2018-09-03T00:46:51.832Z,17.70
2018-09-03T00:47:31.155Z,17.70
2018-09-03T00:48:10.497Z,17.70
2018-09-03T00:48:50.699Z,17.70
2018-09-03T00:49:31.203Z,17.70
2018-09-03T00:50:11.083Z,17.70
2018-09-03T00:50:50.751Z,17.70
2018-09-03T00:51:30.671Z,17.70
2018-09-03T00:52:10.303Z,17.70
2018-09-03T00:52:49.911Z,17.70
2018-09-03T00:53:29.551Z,17.70
2018-09-03T00:54:09.217Z,17.60
2018-09-03T00:54:48.797Z,17.70
2018-09-03T00:55:28.717Z,17.60
2018-09-03T00:56:08.681Z,17.70
2018-09-03T00:56:48.349Z,17.60
2018-09-03T00:57:27.979Z,17.70
2018-09-03T00:58:07.601Z,17.60
2018-09-03T00:58:47.196Z,17.60
2018-09-03T00:59:26.873Z,17.60
2018-09-03T01:00:06.907Z,17.60
2018-09-03T01:00:46.679Z,17.60
2018-09-03T01:01:26.113Z,17.60
2018-09-03T01:02:05.649Z,17.60
2018-09-03T01:02:45.459Z,17.60
2018-09-03T01:03:24.836Z,17.60
2018-09-03T01:04:04.759Z,17.60
2018-09-03T01:04:44.684Z,17.60
2018-09-03T01:05:24.345Z,17.60
2018-09-03T01:06:04.287Z,17.60
2018-09-03T01:06:43.814Z,17.60
2018-09-03T01:07:23.291Z,17.60
2018-09-03T01:08:02.669Z,17.60
2018-09-03T01:08:42.295Z,17.60
2018-09-03T01:09:21.720Z,17.60
2018-09-03T01:10:01.301Z,17.60
2018-09-03T01:10:40.928Z,17.60
2018-09-03T01:11:24.283Z,17.60
2018-09-03T01:12:04.265Z,17.60
2018-09-03T01:12:43.794Z,17.60
2018-09-03T01:13:23.705Z,17.60
2018-09-03T01:14:03.708Z,17.60
2018-09-03T01:14:43.293Z,17.60
2018-09-03T01:15:23.179Z,17.60
2018-09-03T01:16:02.667Z,17.60
2018-09-03T01:16:42.221Z,17.60
2018-09-03T01:17:21.741Z,17.60
2018-09-03T01:18:02.421Z,17.60
2018-09-03T01:18:44.608Z,17.60
2018-09-03T01:19:24.114Z,17.60
2018-09-03T01:20:04.070Z,17.60
2018-09-03T01:20:43.649Z,17.60
2018-09-03T01:21:23.943Z,17.60
2018-09-03T01:22:03.410Z,17.60
2018-09-03T01:22:43.019Z,17.60
2018-09-03T01:23:25.511Z,17.50
2018-09-03T01:24:05.080Z,17.50
2018-09-03T01:24:44.715Z,17.60
2018-09-03T01:25:24.260Z,17.60
2018-09-03T01:26:04.193Z,17.60
2018-09-03T01:26:43.661Z,17.60
2018-09-03T01:27:23.143Z,17.60
2018-09-03T01:28:02.585Z,17.60
2018-09-03T01:28:42.206Z,17.60
2018-09-03T01:29:22.103Z,17.60
2018-09-03T01:30:01.476Z,17.60
2018-09-03T01:30:41.019Z,17.60
2018-09-03T01:31:21.566Z,17.60
2018-09-03T01:32:01.314Z,17.60
2018-09-03T01:32:40.865Z,17.60
2018-09-03T01:33:20.265Z,17.60
2018-09-03T01:33:59.841Z,17.60
2018-09-03T01:34:39.337Z,17.60
2018-09-03T01:35:19.005Z,17.60
2018-09-03T01:35:58.847Z,17.60
2018-09-03T01:36:38.454Z,17.60
2018-09-03T01:37:17.903Z,17.60
2018-09-03T01:37:57.333Z,17.60
2018-09-03T01:38:36.877Z,17.60
2018-09-03T01:39:16.432Z,17.70
2018-09-03T01:39:56.057Z,17.60
2018-09-03T01:40:35.669Z,17.60
2018-09-03T01:41:15.163Z,17.70
2018-09-03T01:41:54.817Z,17.70
2018-09-03T01:42:34.609Z,17.60
2018-09-03T01:43:14.146Z,17.60
2018-09-03T01:43:53.719Z,17.60
2018-09-03T01:44:33.451Z,17.60
2018-09-03T01:45:13.065Z,17.60
2018-09-03T01:45:52.727Z,17.60
2018-09-03T01:46:32.135Z,17.60
2018-09-03T01:47:11.761Z,17.60
2018-09-03T01:47:51.373Z,17.60
2018-09-03T01:48:31.003Z,17.60
2018-09-03T01:49:10.501Z,17.60
2018-09-03T01:49:50.129Z,17.60
2018-09-03T01:50:30.079Z,17.60
2018-09-03T01:51:09.697Z,17.60
2018-09-03T01:51:49.233Z,17.60
2018-09-03T01:52:28.627Z,17.60
2018-09-03T01:53:08.099Z,17.60
2018-09-03T01:53:47.667Z,17.60
2018-09-03T01:54:27.242Z,17.60
2018-09-03T01:55:06.991Z,17.60
2018-09-03T01:55:46.383Z,17.60
2018-09-03T01:56:25.902Z,17.60
2018-09-03T01:57:05.903Z,17.50
2018-09-03T01:57:45.435Z,17.50
2018-09-03T01:58:24.821Z,17.50
2018-09-03T01:59:04.813Z,17.50
2018-09-03T01:59:44.448Z,17.50
2018-09-03T02:01:09.629Z,17.50
2018-09-03T02:01:49.273Z,17.50
2018-09-03T02:02:28.821Z,17.50
2018-09-03T02:03:08.409Z,17.50
2018-09-03T02:03:48.424Z,17.50
2018-09-03T02:04:28.036Z,17.50
2018-09-03T02:05:07.611Z,17.50
2018-09-03T02:05:47.210Z,17.50
2018-09-03T02:06:27.419Z,17.50
2018-09-03T02:07:06.994Z,17.50
2018-09-03T02:07:46.931Z,17.50
2018-09-03T02:08:26.653Z,17.50
2018-09-03T02:09:10.544Z,17.50
2018-09-03T02:09:50.078Z,17.50
2018-09-03T02:10:29.422Z,17.50
2018-09-03T02:11:09.316Z,17.50
2018-09-03T02:11:49.281Z,17.50
2018-09-03T02:12:28.863Z,17.40
2018-09-03T02:13:08.487Z,17.50
2018-09-03T02:13:48.453Z,17.40
2018-09-03T02:14:27.995Z,17.50
2018-09-03T02:15:07.639Z,17.50
2018-09-03T02:15:47.689Z,17.40
2018-09-03T02:16:27.265Z,17.40
2018-09-03T02:17:07.072Z,17.40
2018-09-03T02:17:46.556Z,17.40
2018-09-03T02:18:26.277Z,17.40
2018-09-03T02:19:05.827Z,17.40
2018-09-03T02:19:45.239Z,17.40
2018-09-03T02:20:24.824Z,17.40
2018-09-03T02:21:04.600Z,17.40
2018-09-03T02:21:44.005Z,17.40
2018-09-03T02:22:23.615Z,17.40
2018-09-03T02:23:03.267Z,17.40
2018-09-03T02:23:42.820Z,17.40
2018-09-03T02:24:22.513Z,17.40
2018-09-03T02:25:02.098Z,17.40
2018-09-03T02:25:42.082Z,17.30
2018-09-03T02:26:21.759Z,17.40
2018-09-03T02:27:01.377Z,17.30
2018-09-03T02:27:41.389Z,17.30
2018-09-03T02:28:20.756Z,17.30
2018-09-03T02:29:00.142Z,17.30
2018-09-03T02:29:39.570Z,17.30
2018-09-03T02:30:19.610Z,17.30
2018-09-03T02:30:59.130Z,17.30
2018-09-03T02:31:38.749Z,17.30
2018-09-03T02:32:18.693Z,17.30
2018-09-03T02:32:58.677Z,17.30
2018-09-03T02:33:38.293Z,17.30
2018-09-03T02:34:17.786Z,17.30
2018-09-03T02:34:57.370Z,17.30
2018-09-03T02:35:37.317Z,17.30
2018-09-03T02:36:16.638Z,17.30
2018-09-03T02:36:56.602Z,17.30
2018-09-03T02:37:36.149Z,17.30
2018-09-03T02:38:15.734Z,17.30
2018-09-03T02:38:55.241Z,17.30
2018-09-03T02:39:34.974Z,17.30
2018-09-03T02:40:14.911Z,17.30
2018-09-03T02:40:54.245Z,17.30
2018-09-03T02:41:33.823Z,17.30
2018-09-03T02:42:13.886Z,17.30
2018-09-03T02:42:53.473Z,17.30
2018-09-03T02:43:33.029Z,17.30
2018-09-03T02:44:12.543Z,17.30
2018-09-03T02:44:52.164Z,17.30
2018-09-03T02:45:32.090Z,17.30
2018-09-03T02:46:11.944Z,17.30
2018-09-03T02:46:51.287Z,17.30
2018-09-03T02:47:30.825Z,17.30
2018-09-03T02:48:10.400Z,17.30
2018-09-03T02:48:49.999Z,17.30
2018-09-03T02:49:29.630Z,17.30
2018-09-03T02:50:09.675Z,17.30
2018-09-03T02:50:49.551Z,17.30
2018-09-03T02:51:28.919Z,17.20
2018-09-03T02:52:08.553Z,17.30
2018-09-03T02:52:48.543Z,17.30
2018-09-03T02:53:28.155Z,17.30
2018-09-03T02:54:08.025Z,17.30
2018-09-03T02:54:48.321Z,17.30
2018-09-03T02:55:27.707Z,17.30
2018-09-03T02:56:07.947Z,17.30
2018-09-03T02:56:47.853Z,17.30
2018-09-03T02:57:27.331Z,17.30
2018-09-03T02:58:07.372Z,17.30
2018-09-03T02:58:46.873Z,17.30
2018-09-03T02:59:26.828Z,17.20
2018-09-03T03:00:06.630Z,17.30
2018-09-03T03:00:46.286Z,17.20
2018-09-03T03:01:25.697Z,17.20
2018-09-03T03:02:04.995Z,17.20
2018-09-03T03:02:44.309Z,17.20
2018-09-03T03:03:24.044Z,17.20
2018-09-03T03:04:03.917Z,17.10
2018-09-03T03:04:43.891Z,17.20
2018-09-03T03:05:23.800Z,17.20
2018-09-03T03:06:03.737Z,17.20
2018-09-03T03:06:43.369Z,17.10
2018-09-03T03:07:22.790Z,17.10
2018-09-03T03:08:02.341Z,17.10
2018-09-03T03:08:42.684Z,17.10
2018-09-03T03:09:22.329Z,17.10
2018-09-03T03:10:01.872Z,17.10
2018-09-03T03:10:41.268Z,17.10
2018-09-03T03:11:20.864Z,17.10
2018-09-03T03:12:00.469Z,17.10
2018-09-03T03:12:40.055Z,17.10
2018-09-03T03:13:19.986Z,17.10
2018-09-03T03:13:59.987Z,17.10
2018-09-03T03:14:39.553Z,17.10
2018-09-03T03:15:19.293Z,17.10
2018-09-03T03:15:59.250Z,17.10
2018-09-03T03:16:38.608Z,17.10
2018-09-03T03:17:18.266Z,17.10
2018-09-03T03:17:58.193Z,17.10
2018-09-03T03:18:37.561Z,17.10
2018-09-03T03:19:17.262Z,17.00
2018-09-03T03:19:56.650Z,17.10
2018-09-03T03:20:36.591Z,17.00
2018-09-03T03:21:16.223Z,17.00
2018-09-03T03:21:55.702Z,17.00
2018-09-03T03:22:35.125Z,17.00
2018-09-03T03:23:14.880Z,17.00
2018-09-03T03:23:54.549Z,17.00
2018-09-03T03:24:33.938Z,17.00
2018-09-03T03:25:13.925Z,17.00
2018-09-03T03:25:53.526Z,17.00
2018-09-03T03:26:33.100Z,17.00
2018-09-03T03:27:13.077Z,17.00
2018-09-03T03:27:52.905Z,17.00
2018-09-03T03:28:32.311Z,17.10
2018-09-03T03:29:11.999Z,17.00
2018-09-03T03:29:51.590Z,17.10
2018-09-03T03:30:31.261Z,17.00
2018-09-03T03:31:10.778Z,17.00
2018-09-03T03:31:50.587Z,17.00
2018-09-03T03:32:30.568Z,17.00
2018-09-03T03:33:10.046Z,17.00
2018-09-03T03:33:49.417Z,17.00
2018-09-03T03:34:28.882Z,17.00
2018-09-03T03:35:10.059Z,17.00
2018-09-03T03:35:49.993Z,17.00
2018-09-03T03:36:29.959Z,17.00
2018-09-03T03:37:09.950Z,17.00
2018-09-03T03:37:49.888Z,17.00
2018-09-03T03:38:29.370Z,17.00
2018-09-03T03:39:09.442Z,17.00
2018-09-03T03:39:48.966Z,17.00
2018-09-03T03:40:28.663Z,17.00
2018-09-03T03:41:08.528Z,17.00
2018-09-03T03:41:48.157Z,17.00
2018-09-03T03:42:27.726Z,17.00
2018-09-03T03:43:08.190Z,17.00
2018-09-03T03:43:47.697Z,17.00
2018-09-03T03:44:27.360Z,17.00
2018-09-03T03:45:07.252Z,17.00
2018-09-03T03:45:46.918Z,17.00
2018-09-03T03:46:26.623Z,17.00
2018-09-03T03:47:13.257Z,17.00
2018-09-03T03:47:52.822Z,17.00
2018-09-03T03:48:32.318Z,17.00
2018-09-03T03:49:12.211Z,17.00
2018-09-03T03:49:51.934Z,17.00
2018-09-03T03:50:31.458Z,17.00
2018-09-03T03:51:11.118Z,17.00
2018-09-03T03:51:50.986Z,17.00
2018-09-03T03:52:30.345Z,17.00
2018-09-03T03:53:09.904Z,17.00
2018-09-03T03:53:49.498Z,17.00
2018-09-03T03:54:29.381Z,17.00
2018-09-03T03:55:09.406Z,17.00
2018-09-03T03:55:49.125Z,17.00
2018-09-03T03:56:28.516Z,17.00
2018-09-03T03:57:08.522Z,17.00
2018-09-03T03:57:48.188Z,17.00
2018-09-03T03:58:27.805Z,17.00
2018-09-03T03:59:07.475Z,17.00
2018-09-03T03:59:46.860Z,17.00
2018-09-03T04:00:26.471Z,17.00
2018-09-03T04:01:06.406Z,17.00
2018-09-03T04:01:45.844Z,17.00
2018-09-03T04:02:25.782Z,17.00
2018-09-03T04:03:05.282Z,17.00
2018-09-03T04:03:44.818Z,17.00
2018-09-03T04:04:24.367Z,17.00
2018-09-03T04:05:03.840Z,17.00
2018-09-03T04:05:43.805Z,17.00
2018-09-03T04:06:23.388Z,17.00
2018-09-03T04:07:03.078Z,17.00
2018-09-03T04:07:42.650Z,17.00
2018-09-03T04:09:10.056Z,17.00
2018-09-03T04:09:49.558Z,17.00
2018-09-03T04:10:28.991Z,17.00
2018-09-03T04:11:08.548Z,17.00
2018-09-03T04:11:47.975Z,17.00
2018-09-03T04:12:27.490Z,17.00
2018-09-03T04:13:07.243Z,17.00
2018-09-03T04:13:46.949Z,17.00
2018-09-03T04:14:26.979Z,17.00
2018-09-03T04:15:06.591Z,17.00
2018-09-03T04:15:45.996Z,17.00
2018-09-03T04:16:25.747Z,17.00
2018-09-03T04:17:05.522Z,17.00
2018-09-03T04:17:45.104Z,17.00
2018-09-03T04:18:24.916Z,17.00
2018-09-03T04:19:04.861Z,17.00
2018-09-03T04:19:48.887Z,17.00
2018-09-03T04:20:28.336Z,17.00
2018-09-03T04:21:14.700Z,17.00
2018-09-03T04:21:54.258Z,17.00
2018-09-03T04:22:34.410Z,17.00
2018-09-03T04:23:14.025Z,17.00
2018-09-03T04:23:53.584Z,17.00
2018-09-03T04:24:33.015Z,17.00
2018-09-03T04:25:12.905Z,17.00
2018-09-03T04:25:52.624Z,17.00
2018-09-03T04:26:32.458Z,17.00
2018-09-03T04:27:12.367Z,17.00
2018-09-03T04:27:53.062Z,17.00
2018-09-03T04:28:32.644Z,17.00
2018-09-03T04:29:12.098Z,17.00
2018-09-03T04:29:51.484Z,17.00
2018-09-03T04:30:31.128Z,17.00
2018-09-03T04:31:10.727Z,17.00
2018-09-03T04:31:50.655Z,17.00
2018-09-03T04:32:30.244Z,17.00
2018-09-03T04:33:09.586Z,17.00
2018-09-03T04:33:49.428Z,17.00
2018-09-03T04:34:28.770Z,17.00
2018-09-03T04:35:08.309Z,17.00
2018-09-03T04:35:48.133Z,17.00
2018-09-03T04:36:27.495Z,17.00
2018-09-03T04:37:07.146Z,17.00
2018-09-03T04:37:47.078Z,17.00
2018-09-03T04:38:26.442Z,17.00
2018-09-03T04:39:08.305Z,17.10
2018-09-03T04:39:47.742Z,17.00
2018-09-03T04:40:27.154Z,17.10
2018-09-03T04:41:07.482Z,17.10
2018-09-03T04:41:46.822Z,17.10
2018-09-03T04:42:26.440Z,17.10
2018-09-03T04:43:06.107Z,17.10
2018-09-03T04:43:45.722Z,17.10
2018-09-03T04:44:25.508Z,17.10
2018-09-03T04:45:05.546Z,17.20
2018-09-03T04:45:45.022Z,17.20
2018-09-03T04:46:24.748Z,17.20
2018-09-03T04:47:04.186Z,17.20
2018-09-03T04:47:43.759Z,17.20
2018-09-03T04:48:23.706Z,17.20
2018-09-03T04:49:03.269Z,17.20
2018-09-03T04:49:42.864Z,17.20
2018-09-03T04:50:22.516Z,17.30
2018-09-03T04:51:02.033Z,17.30
2018-09-03T04:51:41.870Z,17.30
2018-09-03T04:52:21.448Z,17.40
2018-09-03T04:53:01.398Z,17.40
2018-09-03T04:53:40.975Z,17.40
2018-09-03T04:54:20.391Z,17.40
2018-09-03T04:54:59.992Z,17.50
2018-09-03T04:55:39.353Z,17.50
2018-09-03T04:56:18.890Z,17.50
2018-09-03T04:56:58.553Z,17.50
2018-09-03T04:57:38.103Z,17.50
2018-09-03T04:58:17.968Z,17.60
2018-09-03T04:58:57.789Z,17.60
2018-09-03T04:59:37.658Z,17.60
2018-09-03T05:00:17.238Z,17.70
2018-09-03T05:00:56.827Z,17.70
2018-09-03T05:01:36.332Z,17.70
2018-09-03T05:02:16.248Z,17.70
2018-09-03T05:02:55.889Z,17.80
2018-09-03T05:03:35.927Z,17.80
2018-09-03T05:04:15.241Z,17.80
2018-09-03T05:04:54.567Z,17.90
2018-09-03T05:05:34.053Z,17.90
2018-09-03T05:06:13.579Z,17.90
2018-09-03T05:06:53.116Z,17.90
2018-09-03T05:07:32.692Z,17.90
2018-09-03T05:08:12.272Z,18.00
2018-09-03T05:08:52.187Z,18.00
2018-09-03T05:09:31.813Z,18.00
2018-09-03T05:10:12.144Z,18.00
2018-09-03T05:10:51.599Z,18.10
2018-09-03T05:11:31.211Z,18.10
2018-09-03T05:12:10.775Z,18.10
2018-09-03T05:12:50.737Z,18.10
2018-09-03T05:13:30.224Z,18.10
2018-09-03T05:14:10.173Z,18.10
2018-09-03T05:14:50.091Z,18.20
2018-09-03T05:15:29.621Z,18.20
2018-09-03T05:16:09.187Z,18.20
2018-09-03T05:16:48.691Z,18.20
2018-09-03T05:17:28.269Z,18.20
2018-09-03T05:18:07.926Z,18.30
2018-09-03T05:18:47.567Z,18.30
2018-09-03T05:19:27.187Z,18.30
2018-09-03T05:20:07.365Z,18.40
2018-09-03T05:20:46.925Z,18.40
2018-09-03T05:21:26.889Z,18.40
2018-09-03T05:22:06.273Z,18.40
2018-09-03T05:22:45.946Z,18.40
2018-09-03T05:23:25.939Z,18.40
2018-09-03T05:24:06.048Z,18.50
2018-09-03T05:24:45.650Z,18.50
2018-09-03T05:25:25.179Z,18.50
2018-09-03T05:26:04.774Z,18.60
2018-09-03T05:26:44.837Z,18.60
2018-09-03T05:27:24.271Z,18.60
2018-09-03T05:28:04.207Z,18.60
2018-09-03T05:28:43.726Z,18.60
2018-09-03T05:29:23.630Z,18.60
2018-09-03T05:30:03.144Z,18.70
2018-09-03T05:30:42.792Z,18.70
2018-09-03T05:31:22.539Z,18.70
2018-09-03T05:32:02.207Z,18.70
2018-09-03T05:32:41.803Z,18.70
2018-09-03T05:33:21.148Z,18.80
2018-09-03T05:34:01.087Z,18.80
2018-09-03T05:34:40.665Z,18.80
2018-09-03T05:35:20.705Z,18.80
2018-09-03T05:36:00.285Z,18.80
2018-09-03T05:36:39.729Z,18.90
2018-09-03T05:37:19.334Z,18.90
2018-09-03T05:37:58.845Z,18.90
2018-09-03T05:38:38.372Z,18.90
2018-09-03T05:39:17.999Z,18.90
2018-09-03T05:39:57.545Z,18.90
2018-09-03T05:40:37.135Z,18.90
2018-09-03T05:41:16.523Z,18.90
2018-09-03T05:41:56.003Z,18.90
2018-09-03T05:42:35.593Z,18.90
2018-09-03T05:43:15.313Z,18.90
2018-09-03T05:43:54.934Z,18.90
2018-09-03T05:44:34.587Z,19.00
2018-09-03T05:45:14.491Z,18.90
2018-09-03T05:45:54.198Z,18.90
2018-09-03T05:46:34.133Z,18.90
2018-09-03T05:47:13.991Z,19.00
2018-09-03T05:47:53.963Z,19.00
2018-09-03T05:48:33.451Z,19.00
2018-09-03T05:49:12.959Z,19.00
2018-09-03T05:49:52.493Z,19.10
2018-09-03T05:50:32.046Z,19.10
2018-09-03T05:51:11.620Z,19.10
2018-09-03T05:51:50.986Z,19.10
2018-09-03T05:52:30.589Z,19.10
2018-09-03T05:53:09.999Z,19.10
2018-09-03T05:53:49.522Z,19.10
2018-09-03T05:54:29.141Z,19.10
2018-09-03T05:55:08.725Z,19.10
2018-09-03T05:55:48.415Z,19.20
2018-09-03T05:56:27.698Z,19.20
2018-09-03T05:57:07.619Z,19.10
2018-09-03T05:57:47.231Z,19.10
2018-09-03T05:58:26.688Z,19.10
2018-09-03T05:59:06.589Z,19.10
2018-09-03T05:59:46.631Z,19.10
2018-09-03T06:00:26.242Z,19.10
2018-09-03T06:01:05.786Z,19.10
2018-09-03T06:01:45.641Z,19.10
2018-09-03T06:02:25.179Z,19.10
2018-09-03T06:03:05.320Z,19.10
2018-09-03T06:03:45.049Z,19.00
2018-09-03T06:04:24.702Z,19.00
2018-09-03T06:05:04.277Z,19.00
2018-09-03T06:05:43.872Z,19.00
2018-09-03T06:06:23.656Z,19.00
2018-09-03T06:07:03.332Z,18.90
2018-09-03T06:07:42.707Z,19.00
2018-09-03T06:08:22.270Z,18.90
2018-09-03T06:09:02.410Z,18.90
2018-09-03T06:09:42.285Z,18.90
2018-09-03T06:10:21.898Z,18.90
2018-09-03T06:11:01.930Z,19.00
2018-09-03T06:11:41.822Z,19.00
2018-09-03T06:12:21.687Z,19.00
2018-09-03T06:13:01.031Z,19.00
2018-09-03T06:13:40.638Z,19.00
2018-09-03T06:14:20.613Z,19.00
2018-09-03T06:15:00.179Z,19.00
2018-09-03T06:15:40.140Z,19.00
2018-09-03T06:16:20.255Z,19.00
2018-09-03T06:16:59.707Z,19.00
2018-09-03T06:17:39.266Z,19.00
2018-09-03T06:18:18.958Z,19.00
2018-09-03T06:18:58.599Z,19.00
2018-09-03T06:19:38.319Z,19.00
2018-09-03T06:20:17.900Z,19.00
2018-09-03T06:20:58.065Z,19.10
2018-09-03T06:21:37.622Z,19.10
2018-09-03T06:22:17.255Z,19.10
2018-09-03T06:22:56.558Z,19.10
2018-09-03T06:23:36.544Z,19.10
2018-09-03T06:24:16.025Z,19.10
2018-09-03T06:24:55.585Z,19.20
2018-09-03T06:25:35.355Z,19.20
2018-09-03T06:26:14.916Z,19.20
2018-09-03T06:26:54.250Z,19.20
2018-09-03T06:27:33.923Z,19.20
2018-09-03T06:28:13.718Z,19.20
2018-09-03T06:28:53.743Z,19.20
2018-09-03T06:29:33.303Z,19.20
2018-09-03T06:30:13.253Z,19.20
2018-09-03T06:30:53.225Z,19.30
2018-09-03T06:31:32.738Z,19.30
2018-09-03T06:32:12.341Z,19.30
2018-09-03T06:32:52.774Z,19.30
2018-09-03T06:33:32.240Z,19.30
2018-09-03T06:34:12.051Z,19.30
2018-09-03T06:34:51.691Z,19.30
2018-09-03T06:35:31.591Z,19.40
2018-09-03T06:36:11.204Z,19.30
2018-09-03T06:36:50.725Z,19.40
2018-09-03T06:37:30.338Z,19.40
2018-09-03T06:38:10.029Z,19.40
2018-09-03T06:38:49.675Z,19.40
2018-09-03T06:39:29.243Z,19.40
2018-09-03T06:40:08.963Z,19.40
2018-09-03T06:40:48.939Z,19.40
2018-09-03T06:41:28.481Z,19.50
2018-09-03T06:42:08.571Z,19.50
2018-09-03T06:42:48.053Z,19.50
2018-09-03T06:43:27.657Z,19.50
2018-09-03T06:44:07.425Z,19.50
2018-09-03T06:44:47.021Z,19.50
2018-09-03T06:45:26.959Z,19.50
2018-09-03T06:46:06.717Z,19.50
2018-09-03T06:46:46.320Z,19.50
2018-09-03T06:47:26.042Z,19.50
2018-09-03T06:48:05.789Z,19.50
2018-09-03T06:48:45.458Z,19.60
2018-09-03T06:49:25.405Z,19.60
2018-09-03T06:50:04.973Z,19.60
2018-09-03T06:50:44.641Z,19.60
2018-09-03T06:51:24.008Z,19.60
2018-09-03T06:52:03.651Z,19.60
2018-09-03T06:52:43.337Z,19.50
2018-09-03T06:53:23.358Z,19.60
2018-09-03T06:54:03.292Z,19.60
2018-09-03T06:54:42.737Z,19.60
2018-09-03T06:55:22.281Z,19.60
2018-09-03T06:56:02.018Z,19.70
2018-09-03T06:56:41.551Z,19.70
2018-09-03T06:57:21.093Z,19.80
2018-09-03T06:58:00.502Z,19.80
2018-09-03T06:58:39.847Z,19.80
2018-09-03T06:59:19.117Z,19.80
2018-09-03T06:59:58.465Z,19.90
2018-09-03T07:00:38.103Z,19.90
2018-09-03T07:01:17.559Z,19.90
2018-09-03T07:01:57.501Z,20.00
2018-09-03T07:02:37.083Z,20.00
2018-09-03T07:03:16.600Z,20.00
2018-09-03T07:03:55.959Z,20.00
2018-09-03T07:04:35.509Z,20.00
2018-09-03T07:05:15.419Z,20.00
2018-09-03T07:05:55.344Z,20.00
2018-09-03T07:06:34.929Z,20.00
2018-09-03T07:07:14.562Z,20.00
2018-09-03T07:07:54.089Z,19.90
2018-09-03T07:08:33.479Z,19.90
2018-09-03T07:09:13.039Z,20.00
2018-09-03T07:09:52.477Z,20.00
2018-09-03T07:10:31.981Z,20.00
2018-09-03T07:11:12.414Z,20.00
2018-09-03T07:11:52.310Z,20.00
2018-09-03T07:12:31.891Z,20.10
2018-09-03T07:13:11.589Z,20.10
2018-09-03T07:13:51.162Z,20.10
2018-09-03T07:14:30.923Z,20.10
2018-09-03T07:15:10.853Z,20.10
2018-09-03T07:15:50.279Z,20.10
2018-09-03T07:16:29.886Z,20.20
2018-09-03T07:17:09.624Z,20.20
2018-09-03T07:17:49.224Z,20.20
2018-09-03T07:18:28.772Z,20.20
2018-09-03T07:19:08.753Z,20.30
2018-09-03T07:19:48.329Z,20.30
2018-09-03T07:20:27.730Z,20.40
2018-09-03T07:21:07.185Z,20.40
2018-09-03T07:21:46.786Z,20.40
2018-09-03T07:22:26.567Z,20.40
2018-09-03T07:23:06.724Z,20.40
2018-09-03T07:23:46.184Z,20.40
2018-09-03T07:24:26.168Z,20.40
2018-09-03T07:25:06.119Z,20.40
2018-09-03T07:25:45.705Z,20.40
2018-09-03T07:26:25.123Z,20.40
2018-09-03T07:27:04.765Z,20.40
2018-09-03T07:27:44.237Z,20.40
2018-09-03T07:28:23.842Z,20.40
2018-09-03T07:29:03.572Z,20.40
2018-09-03T07:29:43.166Z,20.50
2018-09-03T07:30:23.203Z,20.50
2018-09-03T07:31:02.958Z,20.50
2018-09-03T07:31:42.855Z,20.50
2018-09-03T07:32:22.396Z,20.50
2018-09-03T07:33:01.792Z,20.50
2018-09-03T07:33:41.370Z,20.50
2018-09-03T07:34:21.253Z,20.60
2018-09-03T07:35:00.935Z,20.60
2018-09-03T07:35:40.644Z,20.60
2018-09-03T07:36:20.288Z,20.60
2018-09-03T07:36:59.912Z,20.60
2018-09-03T07:37:39.625Z,20.60
2018-09-03T07:38:19.183Z,20.60
2018-09-03T07:38:58.845Z,20.60
2018-09-03T07:39:38.794Z,20.60
2018-09-03T07:40:18.751Z,20.60
2018-09-03T07:40:58.341Z,20.60
2018-09-03T07:41:38.011Z,20.60
2018-09-03T07:42:17.641Z,20.70
2018-09-03T07:42:57.264Z,20.70
2018-09-03T07:43:37.230Z,20.80
2018-09-03T07:44:16.882Z,20.80
2018-09-03T07:44:56.558Z,20.80
2018-09-03T07:45:36.002Z,20.90
2018-09-03T07:46:15.369Z,20.90
2018-09-03T07:46:54.840Z,20.90
2018-09-03T07:47:34.319Z,20.90
2018-09-03T07:48:14.306Z,20.90
2018-09-03T07:48:53.875Z,21.00
2018-09-03T07:49:33.479Z,21.00
2018-09-03T07:50:13.227Z,21.00
2018-09-03T07:50:52.897Z,21.00
2018-09-03T07:51:32.999Z,21.00
2018-09-03T07:52:12.700Z,21.10
2018-09-03T07:52:52.213Z,21.10
2018-09-03T07:53:31.785Z,21.10
2018-09-03T07:54:11.367Z,21.10
2018-09-03T07:54:50.861Z,21.10
2018-09-03T07:55:30.225Z,21.20
2018-09-03T07:56:09.786Z,21.20
2018-09-03T07:56:49.371Z,21.20
2018-09-03T07:57:28.725Z,21.20
2018-09-03T07:58:08.817Z,21.20
2018-09-03T07:58:48.825Z,21.30
2018-09-03T07:59:28.433Z,21.30
2018-09-03T08:00:08.573Z,21.30
2018-09-03T08:00:48.013Z,21.30
2018-09-03T08:01:27.692Z,21.30
2018-09-03T08:02:07.386Z,21.30
2018-09-03T08:02:46.797Z,21.30
2018-09-03T08:03:26.467Z,21.30
2018-09-03T08:04:06.767Z,21.30
2018-09-03T08:04:46.338Z,21.30
2018-09-03T08:05:25.901Z,21.30
2018-09-03T08:06:05.858Z,21.30
2018-09-03T08:06:45.449Z,21.30
2018-09-03T08:07:25.016Z,21.30
2018-09-03T08:08:05.653Z,21.30
2018-09-03T08:08:45.239Z,21.30
2018-09-03T08:09:25.013Z,21.30
2018-09-03T08:10:04.601Z,21.30
2018-09-03T08:10:44.272Z,21.30
2018-09-03T08:11:24.149Z,21.30
2018-09-03T08:12:03.849Z,21.20
2018-09-03T08:12:43.483Z,21.20
2018-09-03T08:13:28.297Z,21.20
2018-09-03T08:14:08.267Z,21.20
2018-09-03T08:14:48.172Z,21.30
2018-09-03T08:15:27.838Z,21.30
2018-09-03T08:16:08.765Z,21.30
2018-09-03T08:16:48.293Z,21.30
2018-09-03T08:17:27.846Z,21.30
2018-09-03T08:18:07.426Z,21.40
2018-09-03T08:18:47.206Z,21.40
2018-09-03T08:19:27.108Z,21.40
2018-09-03T08:20:06.723Z,21.40
2018-09-03T08:20:46.347Z,21.50
2018-09-03T08:21:26.270Z,21.50
2018-09-03T08:22:06.153Z,21.60
2018-09-03T08:22:45.692Z,21.60
2018-09-03T08:23:25.375Z,21.70
2018-09-03T08:24:05.134Z,21.70
2018-09-03T08:24:44.497Z,21.70
2018-09-03T08:25:24.370Z,21.70
2018-09-03T08:26:04.684Z,21.80
2018-09-03T08:26:44.710Z,21.80
2018-09-03T08:27:24.215Z,21.80
2018-09-03T08:28:03.836Z,21.90
2018-09-03T08:28:43.379Z,21.90
2018-09-03T08:29:23.047Z,21.80
2018-09-03T08:30:02.515Z,21.80
2018-09-03T08:30:41.920Z,21.80
2018-09-03T08:31:21.676Z,21.80
2018-09-03T08:32:01.089Z,21.80
2018-09-03T08:32:40.485Z,21.80
2018-09-03T08:33:19.876Z,21.80
2018-09-03T08:33:59.411Z,21.90
2018-09-03T08:34:38.981Z,21.90
2018-09-03T08:35:19.499Z,21.90